sensor_id;sensor_type;location;lat;lon;timestamp;P1;durP1;ratioP1;P2;durP2;ratioP2
11998;SDS011;40817;51.520;9.954;2024-03-07T00:00:41;18.60;;;11.00;;
11998;SDS011;40817;51.520;9.954;2024-03-07T00:03:10;20.00;;;10.98;;
11998;SDS011;40817;51.520;9.954;2024-03-07T00:05:38;18.27;;;11.15;;
11998;SDS011;40817;51.520;9.954;2024-03-07T00:08:05;18.25;;;10.30;;
11998;SDS011;40817;51.520;9.954;2024-03-07T00:10:33;16.65;;;10.30;;
11998;SDS011;40817;51.520;9.954;2024-03-07T00:13:01;16.95;;;10.18;;
11998;SDS011;40817;51.520;9.954;2024-03-07T00:15:28;19.40;;;12.10;;
11998;SDS011;40817;51.520;9.954;2024-03-07T00:17:56;19.33;;;11.20;;
11998;SDS011;40817;51.520;9.954;2024-03-07T00:20:25;18.80;;;11.20;;
11998;SDS011;40817;51.520;9.954;2024-03-07T00:22:52;20.20;;;11.98;;
11998;SDS011;40817;51.520;9.954;2024-03-07T00:25:19;18.10;;;10.32;;
11998;SDS011;40817;51.520;9.954;2024-03-07T00:27:47;17.15;;;10.52;;
11998;SDS011;40817;51.520;9.954;2024-03-07T00:30:18;16.58;;;11.15;;
11998;SDS011;40817;51.520;9.954;2024-03-07T00:32:45;19.73;;;10.88;;
11998;SDS011;40817;51.520;9.954;2024-03-07T00:35:13;18.38;;;10.63;;
11998;SDS011;40817;51.520;9.954;2024-03-07T00:37:42;20.38;;;11.30;;
11998;SDS011;40817;51.520;9.954;2024-03-07T00:40:09;18.13;;;11.00;;
11998;SDS011;40817;51.520;9.954;2024-03-07T00:42:38;19.83;;;11.88;;
11998;SDS011;40817;51.520;9.954;2024-03-07T00:45:05;19.92;;;11.30;;
11998;SDS011;40817;51.520;9.954;2024-03-07T00:47:34;19.10;;;11.27;;
11998;SDS011;40817;51.520;9.954;2024-03-07T00:50:03;20.20;;;11.45;;
11998;SDS011;40817;51.520;9.954;2024-03-07T00:52:34;21.67;;;12.32;;
11998;SDS011;40817;51.520;9.954;2024-03-07T00:55:04;18.92;;;12.27;;
11998;SDS011;40817;51.520;9.954;2024-03-07T00:57:34;18.60;;;10.77;;
11998;SDS011;40817;51.520;9.954;2024-03-07T01:00:01;17.88;;;10.68;;
11998;SDS011;40817;51.520;9.954;2024-03-07T01:02:36;19.58;;;11.90;;
11998;SDS011;40817;51.520;9.954;2024-03-07T01:05:04;18.02;;;10.80;;
11998;SDS011;40817;51.520;9.954;2024-03-07T01:07:35;19.35;;;10.55;;
11998;SDS011;40817;51.520;9.954;2024-03-07T01:10:04;20.70;;;11.23;;
11998;SDS011;40817;51.520;9.954;2024-03-07T01:12:34;19.38;;;11.85;;
11998;SDS011;40817;51.520;9.954;2024-03-07T01:15:01;19.55;;;11.02;;
11998;SDS011;40817;51.520;9.954;2024-03-07T01:17:30;21.25;;;11.20;;
11998;SDS011;40817;51.520;9.954;2024-03-07T01:19:58;18.30;;;10.68;;
11998;SDS011;40817;51.520;9.954;2024-03-07T01:22:25;20.58;;;12.07;;
11998;SDS011;40817;51.520;9.954;2024-03-07T01:24:52;19.10;;;11.13;;
11998;SDS011;40817;51.520;9.954;2024-03-07T01:27:21;20.02;;;11.55;;
11998;SDS011;40817;51.520;9.954;2024-03-07T01:29:49;20.85;;;11.68;;
11998;SDS011;40817;51.520;9.954;2024-03-07T01:32:18;20.95;;;12.30;;
11998;SDS011;40817;51.520;9.954;2024-03-07T01:34:45;18.77;;;11.50;;
11998;SDS011;40817;51.520;9.954;2024-03-07T01:37:13;21.40;;;11.45;;
11998;SDS011;40817;51.520;9.954;2024-03-07T01:39:40;17.75;;;11.00;;
11998;SDS011;40817;51.520;9.954;2024-03-07T01:42:07;20.15;;;12.20;;
11998;SDS011;40817;51.520;9.954;2024-03-07T01:44:36;18.90;;;11.35;;
11998;SDS011;40817;51.520;9.954;2024-03-07T01:47:05;21.52;;;11.52;;
11998;SDS011;40817;51.520;9.954;2024-03-07T01:49:33;19.27;;;11.57;;
11998;SDS011;40817;51.520;9.954;2024-03-07T01:52:00;20.73;;;11.70;;
11998;SDS011;40817;51.520;9.954;2024-03-07T01:54:30;20.48;;;12.25;;
11998;SDS011;40817;51.520;9.954;2024-03-07T01:56:58;20.95;;;12.25;;
11998;SDS011;40817;51.520;9.954;2024-03-07T01:59:25;22.92;;;11.50;;
11998;SDS011;40817;51.520;9.954;2024-03-07T02:01:56;19.15;;;10.77;;
11998;SDS011;40817;51.520;9.954;2024-03-07T02:04:23;19.80;;;11.80;;
11998;SDS011;40817;51.520;9.954;2024-03-07T02:06:51;22.92;;;12.85;;
11998;SDS011;40817;51.520;9.954;2024-03-07T02:09:20;23.58;;;12.48;;
11998;SDS011;40817;51.520;9.954;2024-03-07T02:11:47;21.63;;;12.80;;
11998;SDS011;40817;51.520;9.954;2024-03-07T02:14:14;21.02;;;11.57;;
11998;SDS011;40817;51.520;9.954;2024-03-07T02:16:42;20.42;;;12.23;;
11998;SDS011;40817;51.520;9.954;2024-03-07T02:19:11;21.83;;;13.07;;
11998;SDS011;40817;51.520;9.954;2024-03-07T02:21:44;22.08;;;12.68;;
11998;SDS011;40817;51.520;9.954;2024-03-07T02:24:11;20.73;;;12.50;;
11998;SDS011;40817;51.520;9.954;2024-03-07T02:26:39;20.55;;;11.90;;
11998;SDS011;40817;51.520;9.954;2024-03-07T02:29:06;20.05;;;11.82;;
11998;SDS011;40817;51.520;9.954;2024-03-07T02:31:33;21.77;;;12.38;;
11998;SDS011;40817;51.520;9.954;2024-03-07T02:34:02;25.38;;;13.27;;
11998;SDS011;40817;51.520;9.954;2024-03-07T02:36:30;19.23;;;12.05;;
11998;SDS011;40817;51.520;9.954;2024-03-07T02:38:58;21.33;;;11.70;;
11998;SDS011;40817;51.520;9.954;2024-03-07T02:41:26;22.48;;;13.40;;
11998;SDS011;40817;51.520;9.954;2024-03-07T02:43:53;20.90;;;12.35;;
11998;SDS011;40817;51.520;9.954;2024-03-07T02:46:21;19.73;;;11.70;;
11998;SDS011;40817;51.520;9.954;2024-03-07T02:48:48;22.10;;;12.10;;
11998;SDS011;40817;51.520;9.954;2024-03-07T02:51:15;20.27;;;12.07;;
11998;SDS011;40817;51.520;9.954;2024-03-07T02:53:42;19.60;;;11.88;;
11998;SDS011;40817;51.520;9.954;2024-03-07T02:56:11;21.88;;;12.80;;
11998;SDS011;40817;51.520;9.954;2024-03-07T02:58:38;21.40;;;12.07;;
11998;SDS011;40817;51.520;9.954;2024-03-07T03:01:06;21.10;;;12.38;;
11998;SDS011;40817;51.520;9.954;2024-03-07T03:03:33;21.05;;;12.95;;
11998;SDS011;40817;51.520;9.954;2024-03-07T03:06:01;19.88;;;11.82;;
11998;SDS011;40817;51.520;9.954;2024-03-07T03:08:29;21.00;;;11.82;;
11998;SDS011;40817;51.520;9.954;2024-03-07T03:10:56;21.80;;;11.95;;
11998;SDS011;40817;51.520;9.954;2024-03-07T03:13:25;20.45;;;11.70;;
11998;SDS011;40817;51.520;9.954;2024-03-07T03:15:52;20.38;;;12.70;;
11998;SDS011;40817;51.520;9.954;2024-03-07T03:18:20;18.85;;;11.82;;
11998;SDS011;40817;51.520;9.954;2024-03-07T03:20:48;21.20;;;12.32;;
11998;SDS011;40817;51.520;9.954;2024-03-07T03:23:16;20.20;;;11.18;;
11998;SDS011;40817;51.520;9.954;2024-03-07T03:25:43;21.33;;;13.15;;
11998;SDS011;40817;51.520;9.954;2024-03-07T03:28:12;22.05;;;12.57;;
11998;SDS011;40817;51.520;9.954;2024-03-07T03:30:41;21.95;;;12.98;;
11998;SDS011;40817;51.520;9.954;2024-03-07T03:33:09;25.20;;;13.48;;
11998;SDS011;40817;51.520;9.954;2024-03-07T03:35:36;18.88;;;11.77;;
11998;SDS011;40817;51.520;9.954;2024-03-07T03:38:04;22.50;;;12.88;;
11998;SDS011;40817;51.520;9.954;2024-03-07T03:40:32;22.70;;;14.32;;
11998;SDS011;40817;51.520;9.954;2024-03-07T03:43:00;22.67;;;13.68;;
11998;SDS011;40817;51.520;9.954;2024-03-07T03:45:28;23.30;;;13.55;;
11998;SDS011;40817;51.520;9.954;2024-03-07T03:48:18;22.58;;;13.52;;
11998;SDS011;40817;51.520;9.954;2024-03-07T03:50:45;21.30;;;12.80;;
11998;SDS011;40817;51.520;9.954;2024-03-07T03:53:13;23.02;;;13.02;;
11998;SDS011;40817;51.520;9.954;2024-03-07T03:55:40;22.35;;;14.02;;
11998;SDS011;40817;51.520;9.954;2024-03-07T03:58:07;25.40;;;13.77;;
11998;SDS011;40817;51.520;9.954;2024-03-07T04:00:35;23.73;;;14.02;;
11998;SDS011;40817;51.520;9.954;2024-03-07T04:03:04;23.17;;;13.20;;
11998;SDS011;40817;51.520;9.954;2024-03-07T04:05:33;22.77;;;14.50;;
11998;SDS011;40817;51.520;9.954;2024-03-07T04:08:00;23.33;;;14.35;;
11998;SDS011;40817;51.520;9.954;2024-03-07T04:10:29;24.77;;;13.45;;
11998;SDS011;40817;51.520;9.954;2024-03-07T04:12:56;23.63;;;13.07;;
11998;SDS011;40817;51.520;9.954;2024-03-07T04:15:24;20.95;;;13.35;;
11998;SDS011;40817;51.520;9.954;2024-03-07T04:17:52;22.85;;;13.60;;
11998;SDS011;40817;51.520;9.954;2024-03-07T04:20:19;23.85;;;14.52;;
11998;SDS011;40817;51.520;9.954;2024-03-07T04:22:48;26.25;;;14.80;;
11998;SDS011;40817;51.520;9.954;2024-03-07T04:25:16;24.25;;;14.57;;
11998;SDS011;40817;51.520;9.954;2024-03-07T04:27:43;21.33;;;13.05;;
11998;SDS011;40817;51.520;9.954;2024-03-07T04:30:11;21.30;;;13.20;;
11998;SDS011;40817;51.520;9.954;2024-03-07T04:32:40;23.77;;;14.40;;
11998;SDS011;40817;51.520;9.954;2024-03-07T04:35:08;23.90;;;14.45;;
11998;SDS011;40817;51.520;9.954;2024-03-07T04:37:36;24.85;;;14.23;;
11998;SDS011;40817;51.520;9.954;2024-03-07T04:40:05;22.88;;;14.80;;
11998;SDS011;40817;51.520;9.954;2024-03-07T04:42:41;26.77;;;15.82;;
11998;SDS011;40817;51.520;9.954;2024-03-07T04:45:09;24.20;;;14.15;;
11998;SDS011;40817;51.520;9.954;2024-03-07T04:47:38;23.63;;;14.27;;
11998;SDS011;40817;51.520;9.954;2024-03-07T04:50:06;25.13;;;15.32;;
11998;SDS011;40817;51.520;9.954;2024-03-07T04:52:36;25.88;;;15.15;;
11998;SDS011;40817;51.520;9.954;2024-03-07T04:55:06;23.95;;;14.15;;
11998;SDS011;40817;51.520;9.954;2024-03-07T04:57:35;25.38;;;14.57;;
11998;SDS011;40817;51.520;9.954;2024-03-07T05:00:04;24.30;;;14.98;;
11998;SDS011;40817;51.520;9.954;2024-03-07T05:02:38;23.30;;;14.05;;
11998;SDS011;40817;51.520;9.954;2024-03-07T05:05:06;23.50;;;14.02;;
11998;SDS011;40817;51.520;9.954;2024-03-07T05:07:33;25.98;;;15.27;;
11998;SDS011;40817;51.520;9.954;2024-03-07T05:10:01;24.50;;;14.80;;
11998;SDS011;40817;51.520;9.954;2024-03-07T05:12:31;27.25;;;15.63;;
11998;SDS011;40817;51.520;9.954;2024-03-07T05:14:59;25.63;;;15.80;;
11998;SDS011;40817;51.520;9.954;2024-03-07T05:17:29;25.70;;;14.95;;
11998;SDS011;40817;51.520;9.954;2024-03-07T05:19:59;25.63;;;15.30;;
11998;SDS011;40817;51.520;9.954;2024-03-07T05:22:26;24.85;;;14.48;;
11998;SDS011;40817;51.520;9.954;2024-03-07T05:24:55;26.38;;;16.13;;
11998;SDS011;40817;51.520;9.954;2024-03-07T05:27:23;25.10;;;15.75;;
11998;SDS011;40817;51.520;9.954;2024-03-07T05:29:54;23.10;;;14.57;;
11998;SDS011;40817;51.520;9.954;2024-03-07T05:32:23;26.15;;;15.32;;
11998;SDS011;40817;51.520;9.954;2024-03-07T05:34:51;23.60;;;15.00;;
11998;SDS011;40817;51.520;9.954;2024-03-07T05:37:19;27.40;;;16.48;;
11998;SDS011;40817;51.520;9.954;2024-03-07T05:39:48;28.38;;;15.45;;
11998;SDS011;40817;51.520;9.954;2024-03-07T05:42:15;27.83;;;15.63;;
11998;SDS011;40817;51.520;9.954;2024-03-07T05:44:43;26.35;;;16.70;;
11998;SDS011;40817;51.520;9.954;2024-03-07T05:47:12;24.70;;;15.90;;
11998;SDS011;40817;51.520;9.954;2024-03-07T05:49:41;27.27;;;16.35;;
11998;SDS011;40817;51.520;9.954;2024-03-07T05:52:08;27.15;;;15.70;;
11998;SDS011;40817;51.520;9.954;2024-03-07T05:54:36;29.38;;;16.30;;
11998;SDS011;40817;51.520;9.954;2024-03-07T05:57:03;27.58;;;16.25;;
11998;SDS011;40817;51.520;9.954;2024-03-07T05:59:32;28.48;;;16.58;;
11998;SDS011;40817;51.520;9.954;2024-03-07T06:01:59;28.77;;;16.58;;
11998;SDS011;40817;51.520;9.954;2024-03-07T06:04:28;27.48;;;16.00;;
11998;SDS011;40817;51.520;9.954;2024-03-07T06:06:57;26.95;;;15.57;;
11998;SDS011;40817;51.520;9.954;2024-03-07T06:09:25;25.40;;;16.75;;
11998;SDS011;40817;51.520;9.954;2024-03-07T06:11:52;26.88;;;16.17;;
11998;SDS011;40817;51.520;9.954;2024-03-07T06:14:19;27.35;;;16.27;;
11998;SDS011;40817;51.520;9.954;2024-03-07T06:16:48;26.80;;;16.08;;
11998;SDS011;40817;51.520;9.954;2024-03-07T06:19:23;26.70;;;16.27;;
11998;SDS011;40817;51.520;9.954;2024-03-07T06:21:51;28.58;;;16.95;;
11998;SDS011;40817;51.520;9.954;2024-03-07T06:24:19;29.45;;;16.13;;
11998;SDS011;40817;51.520;9.954;2024-03-07T06:26:47;27.02;;;17.70;;
11998;SDS011;40817;51.520;9.954;2024-03-07T06:29:24;23.40;;;14.95;;
11998;SDS011;40817;51.520;9.954;2024-03-07T06:31:53;25.75;;;16.33;;
11998;SDS011;40817;51.520;9.954;2024-03-07T06:34:21;27.95;;;16.90;;
11998;SDS011;40817;51.520;9.954;2024-03-07T06:36:48;30.35;;;17.08;;
11998;SDS011;40817;51.520;9.954;2024-03-07T06:39:17;26.13;;;15.52;;
11998;SDS011;40817;51.520;9.954;2024-03-07T06:41:47;27.55;;;15.70;;
11998;SDS011;40817;51.520;9.954;2024-03-07T06:44:14;30.92;;;16.63;;
11998;SDS011;40817;51.520;9.954;2024-03-07T06:46:42;27.52;;;16.77;;
11998;SDS011;40817;51.520;9.954;2024-03-07T06:49:10;30.42;;;17.77;;
11998;SDS011;40817;51.520;9.954;2024-03-07T06:51:38;23.48;;;15.13;;
11998;SDS011;40817;51.520;9.954;2024-03-07T06:54:05;30.33;;;17.52;;
11998;SDS011;40817;51.520;9.954;2024-03-07T06:56:34;27.77;;;16.90;;
11998;SDS011;40817;51.520;9.954;2024-03-07T06:59:01;27.42;;;17.13;;
11998;SDS011;40817;51.520;9.954;2024-03-07T07:01:29;29.55;;;16.42;;
11998;SDS011;40817;51.520;9.954;2024-03-07T07:03:58;30.25;;;17.80;;
11998;SDS011;40817;51.520;9.954;2024-03-07T07:06:28;31.88;;;19.00;;
11998;SDS011;40817;51.520;9.954;2024-03-07T07:08:56;30.05;;;17.27;;
11998;SDS011;40817;51.520;9.954;2024-03-07T07:11:27;29.85;;;16.83;;
11998;SDS011;40817;51.520;9.954;2024-03-07T07:13:56;30.42;;;16.63;;
11998;SDS011;40817;51.520;9.954;2024-03-07T07:16:23;28.05;;;17.13;;
11998;SDS011;40817;51.520;9.954;2024-03-07T07:18:52;27.70;;;17.20;;
11998;SDS011;40817;51.520;9.954;2024-03-07T07:21:20;25.63;;;16.52;;
11998;SDS011;40817;51.520;9.954;2024-03-07T07:23:47;27.58;;;17.35;;
11998;SDS011;40817;51.520;9.954;2024-03-07T07:26:15;31.63;;;18.90;;
11998;SDS011;40817;51.520;9.954;2024-03-07T07:28:42;27.02;;;16.58;;
11998;SDS011;40817;51.520;9.954;2024-03-07T07:31:10;30.40;;;17.48;;
11998;SDS011;40817;51.520;9.954;2024-03-07T07:33:38;29.00;;;17.25;;
11998;SDS011;40817;51.520;9.954;2024-03-07T07:36:06;31.75;;;17.58;;
11998;SDS011;40817;51.520;9.954;2024-03-07T07:38:35;32.30;;;18.75;;
11998;SDS011;40817;51.520;9.954;2024-03-07T07:41:02;30.65;;;17.45;;
11998;SDS011;40817;51.520;9.954;2024-03-07T07:43:31;27.27;;;16.80;;
11998;SDS011;40817;51.520;9.954;2024-03-07T07:45:59;27.65;;;16.38;;
11998;SDS011;40817;51.520;9.954;2024-03-07T07:48:29;28.45;;;17.00;;
11998;SDS011;40817;51.520;9.954;2024-03-07T07:50:56;30.80;;;16.90;;
11998;SDS011;40817;51.520;9.954;2024-03-07T07:53:24;28.08;;;16.63;;
11998;SDS011;40817;51.520;9.954;2024-03-07T07:55:51;28.52;;;16.48;;
11998;SDS011;40817;51.520;9.954;2024-03-07T07:58:19;31.55;;;18.65;;
11998;SDS011;40817;51.520;9.954;2024-03-07T08:00:46;27.08;;;16.40;;
11998;SDS011;40817;51.520;9.954;2024-03-07T08:03:14;29.60;;;16.15;;
11998;SDS011;40817;51.520;9.954;2024-03-07T08:05:44;31.48;;;17.05;;
11998;SDS011;40817;51.520;9.954;2024-03-07T08:08:11;29.90;;;17.15;;
11998;SDS011;40817;51.520;9.954;2024-03-07T08:10:41;28.98;;;17.85;;
11998;SDS011;40817;51.520;9.954;2024-03-07T08:13:10;28.77;;;17.05;;
11998;SDS011;40817;51.520;9.954;2024-03-07T08:15:38;29.13;;;17.02;;
11998;SDS011;40817;51.520;9.954;2024-03-07T08:18:05;30.58;;;18.23;;
11998;SDS011;40817;51.520;9.954;2024-03-07T08:20:33;31.63;;;18.33;;
11998;SDS011;40817;51.520;9.954;2024-03-07T08:23:03;30.67;;;17.65;;
11998;SDS011;40817;51.520;9.954;2024-03-07T08:25:30;29.33;;;18.23;;
11998;SDS011;40817;51.520;9.954;2024-03-07T08:27:57;31.27;;;17.33;;
11998;SDS011;40817;51.520;9.954;2024-03-07T08:30:25;27.75;;;16.50;;
11998;SDS011;40817;51.520;9.954;2024-03-07T08:32:54;28.75;;;17.00;;
11998;SDS011;40817;51.520;9.954;2024-03-07T08:35:22;33.53;;;17.40;;
11998;SDS011;40817;51.520;9.954;2024-03-07T08:37:50;27.45;;;17.02;;
11998;SDS011;40817;51.520;9.954;2024-03-07T08:40:20;28.30;;;16.05;;
11998;SDS011;40817;51.520;9.954;2024-03-07T08:42:49;27.15;;;16.15;;
11998;SDS011;40817;51.520;9.954;2024-03-07T08:45:19;26.10;;;15.23;;
11998;SDS011;40817;51.520;9.954;2024-03-07T08:47:47;31.92;;;15.10;;
11998;SDS011;40817;51.520;9.954;2024-03-07T08:50:17;27.80;;;14.70;;
11998;SDS011;40817;51.520;9.954;2024-03-07T08:52:44;27.30;;;14.75;;
11998;SDS011;40817;51.520;9.954;2024-03-07T08:55:13;30.38;;;15.55;;
11998;SDS011;40817;51.520;9.954;2024-03-07T08:57:43;30.77;;;14.55;;
11998;SDS011;40817;51.520;9.954;2024-03-07T09:00:14;31.95;;;15.85;;
11998;SDS011;40817;51.520;9.954;2024-03-07T09:02:47;33.40;;;15.57;;
11998;SDS011;40817;51.520;9.954;2024-03-07T09:05:17;31.80;;;16.20;;
11998;SDS011;40817;51.520;9.954;2024-03-07T09:07:45;28.60;;;14.95;;
11998;SDS011;40817;51.520;9.954;2024-03-07T09:10:12;28.63;;;15.40;;
11998;SDS011;40817;51.520;9.954;2024-03-07T09:12:40;29.40;;;15.65;;
11998;SDS011;40817;51.520;9.954;2024-03-07T09:15:09;31.30;;;14.77;;
11998;SDS011;40817;51.520;9.954;2024-03-07T09:17:38;29.70;;;15.85;;
11998;SDS011;40817;51.520;9.954;2024-03-07T09:20:06;30.85;;;14.73;;
11998;SDS011;40817;51.520;9.954;2024-03-07T09:22:39;33.65;;;16.10;;
11998;SDS011;40817;51.520;9.954;2024-03-07T09:25:07;29.50;;;14.70;;
11998;SDS011;40817;51.520;9.954;2024-03-07T09:27:35;31.70;;;15.77;;
11998;SDS011;40817;51.520;9.954;2024-03-07T09:30:05;27.50;;;14.55;;
11998;SDS011;40817;51.520;9.954;2024-03-07T09:32:38;35.25;;;16.23;;
11998;SDS011;40817;51.520;9.954;2024-03-07T09:35:06;27.00;;;14.20;;
11998;SDS011;40817;51.520;9.954;2024-03-07T09:37:39;29.70;;;15.15;;
11998;SDS011;40817;51.520;9.954;2024-03-07T09:40:07;29.92;;;16.02;;
11998;SDS011;40817;51.520;9.954;2024-03-07T09:42:37;30.30;;;14.85;;
11998;SDS011;40817;51.520;9.954;2024-03-07T09:45:14;32.22;;;15.48;;
11998;SDS011;40817;51.520;9.954;2024-03-07T09:47:46;30.02;;;14.93;;
11998;SDS011;40817;51.520;9.954;2024-03-07T09:50:15;30.10;;;16.65;;
11998;SDS011;40817;51.520;9.954;2024-03-07T09:52:46;27.13;;;15.13;;
11998;SDS011;40817;51.520;9.954;2024-03-07T09:55:16;33.85;;;14.07;;
11998;SDS011;40817;51.520;9.954;2024-03-07T09:57:45;28.73;;;15.10;;
11998;SDS011;40817;51.520;9.954;2024-03-07T10:00:15;27.75;;;14.07;;
11998;SDS011;40817;51.520;9.954;2024-03-07T10:02:53;27.95;;;14.82;;
11998;SDS011;40817;51.520;9.954;2024-03-07T10:05:26;27.00;;;15.05;;
11998;SDS011;40817;51.520;9.954;2024-03-07T10:07:54;26.48;;;14.60;;
11998;SDS011;40817;51.520;9.954;2024-03-07T10:10:22;30.23;;;14.40;;
11998;SDS011;40817;51.520;9.954;2024-03-07T10:12:51;30.73;;;15.35;;
11998;SDS011;40817;51.520;9.954;2024-03-07T10:15:18;27.55;;;14.32;;
11998;SDS011;40817;51.520;9.954;2024-03-07T10:17:48;29.98;;;15.40;;
11998;SDS011;40817;51.520;9.954;2024-03-07T10:20:17;28.45;;;15.05;;
11998;SDS011;40817;51.520;9.954;2024-03-07T10:22:47;26.58;;;13.95;;
11998;SDS011;40817;51.520;9.954;2024-03-07T10:25:16;30.52;;;15.18;;
11998;SDS011;40817;51.520;9.954;2024-03-07T10:27:46;27.67;;;15.10;;
11998;SDS011;40817;51.520;9.954;2024-03-07T10:30:14;27.42;;;14.40;;
11998;SDS011;40817;51.520;9.954;2024-03-07T10:32:45;24.90;;;13.63;;
11998;SDS011;40817;51.520;9.954;2024-03-07T10:35:13;31.45;;;15.43;;
11998;SDS011;40817;51.520;9.954;2024-03-07T10:37:49;30.27;;;16.00;;
11998;SDS011;40817;51.520;9.954;2024-03-07T10:40:19;27.98;;;15.02;;
11998;SDS011;40817;51.520;9.954;2024-03-07T10:42:47;26.02;;;13.75;;
11998;SDS011;40817;51.520;9.954;2024-03-07T10:45:19;27.48;;;14.73;;
11998;SDS011;40817;51.520;9.954;2024-03-07T10:47:50;27.70;;;14.07;;
11998;SDS011;40817;51.520;9.954;2024-03-07T10:50:27;26.05;;;13.15;;
11998;SDS011;40817;51.520;9.954;2024-03-07T10:53:12;31.40;;;14.45;;
11998;SDS011;40817;51.520;9.954;2024-03-07T10:55:59;28.95;;;14.02;;
11998;SDS011;40817;51.520;9.954;2024-03-07T10:58:58;25.38;;;14.18;;
11998;SDS011;40817;51.520;9.954;2024-03-07T11:01:35;26.00;;;13.38;;
11998;SDS011;40817;51.520;9.954;2024-03-07T11:04:14;26.40;;;13.48;;
11998;SDS011;40817;51.520;9.954;2024-03-07T11:06:45;31.75;;;14.07;;
11998;SDS011;40817;51.520;9.954;2024-03-07T11:09:14;28.95;;;13.45;;
11998;SDS011;40817;51.520;9.954;2024-03-07T11:11:48;24.45;;;13.10;;
11998;SDS011;40817;51.520;9.954;2024-03-07T11:14:15;26.23;;;12.50;;
11998;SDS011;40817;51.520;9.954;2024-03-07T11:16:44;29.70;;;13.25;;
11998;SDS011;40817;51.520;9.954;2024-03-07T11:19:25;32.65;;;12.48;;
11998;SDS011;40817;51.520;9.954;2024-03-07T11:21:54;27.58;;;13.25;;
11998;SDS011;40817;51.520;9.954;2024-03-07T11:24:22;29.33;;;12.45;;
11998;SDS011;40817;51.520;9.954;2024-03-07T11:26:53;24.75;;;12.85;;
11998;SDS011;40817;51.520;9.954;2024-03-07T11:29:41;27.08;;;13.25;;
11998;SDS011;40817;51.520;9.954;2024-03-07T11:32:18;24.70;;;13.43;;
11998;SDS011;40817;51.520;9.954;2024-03-07T11:34:48;25.90;;;13.73;;
11998;SDS011;40817;51.520;9.954;2024-03-07T11:40:09;28.77;;;13.25;;
11998;SDS011;40817;51.520;9.954;2024-03-07T11:42:43;23.25;;;12.52;;
11998;SDS011;40817;51.520;9.954;2024-03-07T11:45:14;25.00;;;12.65;;
11998;SDS011;40817;51.520;9.954;2024-03-07T11:47:50;22.83;;;12.35;;
11998;SDS011;40817;51.520;9.954;2024-03-07T11:50:25;26.75;;;12.55;;
11998;SDS011;40817;51.520;9.954;2024-03-07T11:52:54;20.15;;;11.65;;
11998;SDS011;40817;51.520;9.954;2024-03-07T11:55:22;23.65;;;12.73;;
11998;SDS011;40817;51.520;9.954;2024-03-07T11:57:50;21.63;;;10.68;;
11998;SDS011;40817;51.520;9.954;2024-03-07T12:00:17;20.48;;;10.18;;
11998;SDS011;40817;51.520;9.954;2024-03-07T12:02:49;20.92;;;10.10;;
11998;SDS011;40817;51.520;9.954;2024-03-07T12:05:20;22.10;;;12.05;;
11998;SDS011;40817;51.520;9.954;2024-03-07T12:07:47;19.95;;;10.95;;
11998;SDS011;40817;51.520;9.954;2024-03-07T12:10:16;20.25;;;11.05;;
11998;SDS011;40817;51.520;9.954;2024-03-07T12:12:49;32.00;;;12.05;;
11998;SDS011;40817;51.520;9.954;2024-03-07T12:15:17;69.07;;;16.05;;
11998;SDS011;40817;51.520;9.954;2024-03-07T12:17:46;22.90;;;11.10;;
11998;SDS011;40817;51.520;9.954;2024-03-07T12:20:15;21.42;;;9.95;;
11998;SDS011;40817;51.520;9.954;2024-03-07T12:25:24;18.05;;;9.57;;
11998;SDS011;40817;51.520;9.954;2024-03-07T12:28:02;19.02;;;11.27;;
11998;SDS011;40817;51.520;9.954;2024-03-07T12:30:36;19.67;;;10.60;;
11998;SDS011;40817;51.520;9.954;2024-03-07T12:33:16;16.10;;;9.35;;
11998;SDS011;40817;51.520;9.954;2024-03-07T12:35:45;17.80;;;8.95;;
11998;SDS011;40817;51.520;9.954;2024-03-07T12:38:15;18.90;;;10.07;;
11998;SDS011;40817;51.520;9.954;2024-03-07T12:40:44;16.08;;;9.13;;
11998;SDS011;40817;51.520;9.954;2024-03-07T12:43:13;18.90;;;9.70;;
11998;SDS011;40817;51.520;9.954;2024-03-07T12:45:43;18.60;;;10.60;;
11998;SDS011;40817;51.520;9.954;2024-03-07T12:48:14;18.88;;;10.10;;
11998;SDS011;40817;51.520;9.954;2024-03-07T12:50:41;18.02;;;9.10;;
11998;SDS011;40817;51.520;9.954;2024-03-07T12:53:15;17.55;;;9.07;;
11998;SDS011;40817;51.520;9.954;2024-03-07T12:55:44;15.07;;;8.48;;
11998;SDS011;40817;51.520;9.954;2024-03-07T12:58:11;15.63;;;9.93;;
11998;SDS011;40817;51.520;9.954;2024-03-07T13:00:40;16.33;;;8.50;;
11998;SDS011;40817;51.520;9.954;2024-03-07T13:03:08;14.32;;;8.63;;
11998;SDS011;40817;51.520;9.954;2024-03-07T13:05:36;16.60;;;9.07;;
11998;SDS011;40817;51.520;9.954;2024-03-07T13:08:05;17.52;;;9.43;;
11998;SDS011;40817;51.520;9.954;2024-03-07T13:10:36;16.90;;;8.90;;
11998;SDS011;40817;51.520;9.954;2024-03-07T13:13:07;16.10;;;9.32;;
11998;SDS011;40817;51.520;9.954;2024-03-07T13:15:35;15.23;;;8.50;;
11998;SDS011;40817;51.520;9.954;2024-03-07T13:18:04;15.85;;;9.18;;
11998;SDS011;40817;51.520;9.954;2024-03-07T13:20:32;15.40;;;9.00;;
11998;SDS011;40817;51.520;9.954;2024-03-07T13:22:59;14.77;;;8.63;;
11998;SDS011;40817;51.520;9.954;2024-03-07T13:25:27;16.38;;;9.40;;
11998;SDS011;40817;51.520;9.954;2024-03-07T13:27:59;18.35;;;9.85;;
11998;SDS011;40817;51.520;9.954;2024-03-07T13:30:34;16.40;;;9.88;;
11998;SDS011;40817;51.520;9.954;2024-03-07T13:33:02;14.63;;;8.82;;
11998;SDS011;40817;51.520;9.954;2024-03-07T13:35:30;14.88;;;8.82;;
11998;SDS011;40817;51.520;9.954;2024-03-07T13:37:58;16.00;;;10.13;;
11998;SDS011;40817;51.520;9.954;2024-03-07T13:40:26;16.80;;;9.05;;
11998;SDS011;40817;51.520;9.954;2024-03-07T13:42:56;13.73;;;9.00;;
11998;SDS011;40817;51.520;9.954;2024-03-07T13:45:26;20.67;;;10.20;;
11998;SDS011;40817;51.520;9.954;2024-03-07T13:47:58;17.00;;;9.93;;
11998;SDS011;40817;51.520;9.954;2024-03-07T13:50:26;13.80;;;9.50;;
11998;SDS011;40817;51.520;9.954;2024-03-07T13:52:59;15.48;;;9.95;;
11998;SDS011;40817;51.520;9.954;2024-03-07T13:55:50;13.50;;;9.05;;
11998;SDS011;40817;51.520;9.954;2024-03-07T13:58:40;17.48;;;10.27;;
11998;SDS011;40817;51.520;9.954;2024-03-07T14:01:33;15.90;;;9.50;;
11998;SDS011;40817;51.520;9.954;2024-03-07T14:04:27;15.60;;;9.52;;
11998;SDS011;40817;51.520;9.954;2024-03-07T14:07:51;15.57;;;9.73;;
11998;SDS011;40817;51.520;9.954;2024-03-07T14:11:01;16.20;;;10.27;;
11998;SDS011;40817;51.520;9.954;2024-03-07T14:21:39;16.48;;;9.82;;
11998;SDS011;40817;51.520;9.954;2024-03-07T14:27:50;14.35;;;9.45;;
11998;SDS011;40817;51.520;9.954;2024-03-07T14:30:39;13.95;;;9.10;;
11998;SDS011;40817;51.520;9.954;2024-03-07T14:33:16;13.45;;;9.02;;
11998;SDS011;40817;51.520;9.954;2024-03-07T14:35:57;12.43;;;8.75;;
11998;SDS011;40817;51.520;9.954;2024-03-07T14:38:48;15.20;;;9.68;;
11998;SDS011;40817;51.520;9.954;2024-03-07T14:41:19;16.52;;;9.18;;
11998;SDS011;40817;51.520;9.954;2024-03-07T14:44:07;14.98;;;9.10;;
11998;SDS011;40817;51.520;9.954;2024-03-07T14:46:35;15.10;;;10.15;;
11998;SDS011;40817;51.520;9.954;2024-03-07T14:49:03;14.43;;;9.10;;
11998;SDS011;40817;51.520;9.954;2024-03-07T14:51:30;13.75;;;9.15;;
11998;SDS011;40817;51.520;9.954;2024-03-07T14:53:59;14.57;;;9.15;;
11998;SDS011;40817;51.520;9.954;2024-03-07T14:56:28;12.57;;;9.20;;